Time;durP1;ratioP1;P1;durP2;ratioP2;P2;SDS_P1;SDS_P2;PMS_P1;PMS_P2;Temp;Humidity;BMP_temperature;BMP_pressure;BME280_temperature;BME280_humidity;BME280_pressure;Samples;Min_cycle;Max_cycle;Signal;HPM_P1;HPM_P2
2022/04/12 00:01:07;;;;;;;17.98;8.98;;;10.10;99.90;;;;;;5072868;28;20048;-62
2022/04/12 00:03:35;;;;;;;17.67;8.15;;;10.00;99.90;;;;;;5072905;28;20048;-64
2022/04/12 00:06:03;;;;;;;18.63;8.45;;;10.00;99.90;;;;;;5072617;28;20610;-62
2022/04/12 00:08:31;;;;;;;22.38;9.23;;;10.00;99.90;;;;;;5071397;28;20060;-63
2022/04/12 00:10:59;;;;;;;16.60;8.27;;;10.00;99.90;;;;;;5071889;28;20045;-62
2022/04/12 00:13:26;;;;;;;24.08;9.45;;;10.00;99.90;;;;;;5055732;28;20049;-62
2022/04/12 00:15:54;;;;;;;17.38;8.35;;;10.00;99.90;;;;;;5052641;28;20052;-66
2022/04/12 00:21:08;;;;;;;18.92;9.45;;;10.00;99.90;;;;;;5071982;28;20048;-62
2022/04/12 00:23:36;;;;;;;18.20;8.40;;;10.00;99.90;;;;;;5072374;28;20056;-67
2022/04/12 00:26:04;;;;;;;17.75;9.38;;;10.00;99.90;;;;;;5072461;28;20059;-63
2022/04/12 00:28:32;;;;;;;23.52;9.55;;;10.00;99.90;;;;;;5063257;28;20048;-63
2022/04/12 00:30:59;;;;;;;18.40;9.07;;;10.00;99.90;;;;;;5071157;28;20059;-61
2022/04/12 00:33:28;;;;;;;19.45;9.25;;;10.00;99.90;;;;;;5072383;28;20052;-62
2022/04/12 00:35:58;;;;;;;19.17;9.10;;;10.00;99.90;;;;;;5072311;28;20040;-61
2022/04/12 00:38:27;;;;;;;21.08;10.80;;;10.00;99.90;;;;;;5071847;28;20123;-61
2022/04/12 00:40:55;;;;;;;17.67;8.48;;;10.00;99.90;;;;;;5071466;28;20048;-62
2022/04/12 00:43:27;;;;;;;25.63;9.43;;;10.00;99.90;;;;;;5069220;28;20475;-61
2022/04/12 00:46:00;;;;;;;23.05;9.45;;;10.00;99.90;;;;;;5072058;28;20053;-61
2022/04/12 00:48:29;;;;;;;20.35;10.18;;;10.10;99.90;;;;;;5071953;28;20051;-61
2022/04/12 00:50:58;;;;;;;22.00;9.52;;;10.00;99.90;;;;;;5059828;28;20503;-63
2022/04/12 00:53:27;;;;;;;18.02;9.27;;;10.10;99.90;;;;;;5051934;28;20037;-60
2022/04/12 00:55:54;;;;;;;19.55;9.75;;;10.10;99.90;;;;;;5052097;28;20049;-61
2022/04/12 00:58:23;;;;;;;20.63;9.43;;;10.10;99.90;;;;;;5057628;28;20040;-62
2022/04/12 01:00:51;;;;;;;21.02;10.15;;;10.10;99.90;;;;;;5072032;28;20480;-65
2022/04/12 01:03:19;;;;;;;17.10;9.77;;;10.10;99.90;;;;;;5068292;28;20036;-64
2022/04/12 01:05:47;;;;;;;20.88;10.65;;;10.10;99.90;;;;;;5068672;28;20052;-63
2022/04/12 01:08:17;;;;;;;19.33;10.30;;;10.10;99.90;;;;;;5069931;28;20037;-63
2022/04/12 01:10:45;;;;;;;22.80;10.50;;;10.00;99.90;;;;;;5070785;28;20045;-64
2022/04/12 01:13:13;;;;;;;23.38;11.15;;;10.00;99.90;;;;;;5066331;28;20040;-66
2022/04/12 01:15:42;;;;;;;19.90;10.60;;;10.00;99.90;;;;;;5051552;28;20049;-68
2022/04/12 01:18:10;;;;;;;24.20;10.35;;;10.00;99.90;;;;;;5055657;28;20048;-65
2022/04/12 01:20:38;;;;;;;24.02;11.70;;;10.00;99.90;;;;;;5069861;28;20056;-68
2022/04/12 01:23:25;;;;;;;24.05;11.88;;;9.90;99.90;;;;;;5071424;28;20041;-67
2022/04/12 01:25:53;;;;;;;26.13;11.35;;;9.90;99.90;;;;;;5071179;28;20405;-66
2022/04/12 01:28:21;;;;;;;22.58;11.05;;;9.90;99.90;;;;;;5049658;28;20048;-65
2022/04/12 01:30:52;;;;;;;20.42;10.32;;;9.90;99.90;;;;;;5050760;28;20041;-63
2022/04/12 01:33:20;;;;;;;22.58;11.23;;;9.80;99.90;;;;;;5051342;28;20045;-60
2022/04/12 01:35:48;;;;;;;19.65;11.02;;;9.80;99.90;;;;;;5052733;28;20041;-61
2022/04/12 01:38:15;;;;;;;22.52;11.43;;;9.80;99.90;;;;;;5057383;28;20597;-61
2022/04/12 01:40:43;;;;;;;18.42;10.10;;;9.80;99.90;;;;;;5070375;28;20044;-61
2022/04/12 01:43:11;;;;;;;27.25;12.45;;;9.70;99.90;;;;;;5071415;28;20033;-61
2022/04/12 01:45:38;;;;;;;24.75;11.68;;;9.70;99.90;;;;;;5070722;28;20048;-62
2022/04/12 01:48:06;;;;;;;24.23;12.38;;;9.70;99.90;;;;;;5071623;28;20051;-62
2022/04/12 01:50:34;;;;;;;26.50;11.20;;;9.70;99.90;;;;;;5071556;28;20048;-61
2022/04/12 01:53:02;;;;;;;32.65;12.68;;;9.60;99.90;;;;;;5071380;28;20395;-60
2022/04/12 01:55:29;;;;;;;28.80;12.38;;;9.60;99.90;;;;;;5071161;28;20059;-61
2022/04/12 01:57:57;;;;;;;26.15;12.73;;;9.60;99.90;;;;;;5071752;28;20044;-62
2022/04/12 02:00:24;;;;;;;25.25;12.98;;;9.60;99.90;;;;;;5070907;28;20395;-61
2022/04/12 02:02:52;;;;;;;29.60;13.55;;;9.60;99.90;;;;;;5072233;28;20040;-61
2022/04/12 02:05:20;;;;;;;26.55;13.75;;;9.60;99.90;;;;;;5054313;28;20048;-61
2022/04/12 02:07:47;;;;;;;30.58;13.60;;;9.50;99.90;;;;;;5072066;28;20036;-61
2022/04/12 02:10:18;;;;;;;27.35;13.45;;;9.50;99.90;;;;;;5071325;28;20057;-61
2022/04/12 02:12:45;;;;;;;;;;;9.50;99.90;;;;;;5052238;28;20049;-60
2022/04/12 02:15:13;;;;;;;26.08;13.25;;;9.50;99.90;;;;;;5051871;28;19927;-61
2022/04/12 02:17:40;;;;;;;27.73;14.25;;;9.40;99.90;;;;;;5051986;28;20477;-62
2022/04/12 02:20:08;;;;;;;24.92;13.18;;;9.40;99.90;;;;;;5052027;28;20057;-60
2022/04/12 02:22:37;;;;;;;30.83;13.70;;;9.50;99.90;;;;;;5050649;28;20206;-62
2022/04/12 02:25:05;;;;;;;26.90;13.13;;;9.50;99.90;;;;;;5050292;28;20065;-61
2022/04/12 02:27:32;;;;;;;28.42;13.45;;;9.50;99.90;;;;;;5051974;28;20049;-61
2022/04/12 02:30:00;;;;;;;25.50;14.38;;;9.50;99.90;;;;;;5051601;28;20059;-62
2022/04/12 02:32:28;;;;;;;28.25;14.63;;;9.50;99.90;;;;;;5051748;28;20056;-62
2022/04/12 02:35:00;;;;;;;30.75;14.63;;;9.50;99.90;;;;;;5051779;28;20052;-62
2022/04/12 02:37:28;;;;;;;36.38;14.60;;;9.50;99.90;;;;;;5051747;28;20377;-63
2022/04/12 02:39:55;;;;;;;28.95;14.57;;;9.50;99.90;;;;;;5050504;28;20398;-61
2022/04/12 02:42:23;;;;;;;27.02;14.90;;;9.50;99.90;;;;;;5070835;28;20404;-61
2022/04/12 02:44:51;;;;;;;31.92;14.70;;;9.50;99.90;;;;;;5071608;28;20064;-60
2022/04/12 02:47:18;;;;;;;28.98;15.32;;;9.50;99.90;;;;;;5071683;28;20376;-61
2022/04/12 02:49:46;;;;;;;31.73;15.05;;;9.50;99.90;;;;;;5070258;28;20541;-61
2022/04/12 02:52:13;;;;;;;25.63;14.52;;;9.50;99.90;;;;;;5071568;28;20051;-60
2022/04/12 02:54:41;;;;;;;34.00;15.93;;;9.50;99.90;;;;;;5070286;28;20075;-61
2022/04/12 02:57:09;;;;;;;35.33;16.40;;;9.50;99.90;;;;;;5071548;28;20047;-65
2022/04/12 02:59:36;;;;;;;31.25;16.92;;;9.60;99.90;;;;;;5071451;28;20052;-63
2022/04/12 03:02:05;;;;;;;30.27;15.32;;;9.50;99.90;;;;;;5071544;28;20041;-62
2022/04/12 03:04:32;;;;;;;36.85;15.68;;;9.60;99.90;;;;;;5071224;28;20041;-65
2022/04/12 03:07:00;;;;;;;26.67;13.55;;;9.60;99.90;;;;;;5071551;28;20041;-62
2022/04/12 03:09:28;;;;;;;30.10;14.90;;;9.60;99.90;;;;;;5070154;28;20071;-66
2022/04/12 03:11:56;;;;;;;37.10;16.08;;;9.60;99.90;;;;;;5069482;28;20475;-64
2022/04/12 03:14:24;;;;;;;28.20;14.93;;;9.60;99.90;;;;;;5071124;28;20055;-61
2022/04/12 03:16:51;;;;;;;32.10;15.52;;;9.60;99.90;;;;;;5071346;28;20036;-61
2022/04/12 03:19:20;;;;;;;32.65;15.15;;;9.60;99.90;;;;;;5070111;28;20040;-61
2022/04/12 03:21:47;;;;;;;29.13;15.38;;;9.60;99.90;;;;;;5071380;28;20089;-61
2022/04/12 03:24:15;;;;;;;35.97;16.33;;;9.80;99.90;;;;;;5071201;28;20431;-61
2022/04/12 03:26:42;;;;;;;28.67;15.05;;;9.70;99.90;;;;;;5071572;28;20037;-61
2022/04/12 03:29:10;;;;;;;28.67;15.65;;;9.60;99.90;;;;;;5071157;28;20049;-60
2022/04/12 03:31:37;;;;;;;37.63;16.35;;;9.60;99.90;;;;;;5071280;28;20047;-60
2022/04/12 03:34:05;;;;;;;28.60;15.00;;;9.60;99.90;;;;;;5071142;28;20506;-61
2022/04/12 03:36:33;;;;;;;29.52;15.45;;;9.70;99.90;;;;;;5071182;28;20048;-62
2022/04/12 03:39:04;;;;;;;35.25;16.73;;;9.60;99.90;;;;;;5071051;28;20059;-61
2022/04/12 03:41:32;;;;;;;32.53;15.65;;;9.60;99.90;;;;;;5055403;28;20485;-61
2022/04/12 03:44:00;;;;;;;28.17;15.27;;;9.60;99.90;;;;;;5050927;28;20465;-60
2022/04/12 03:46:28;;;;;;;32.45;15.43;;;9.60;99.90;;;;;;5050999;28;20044;-61
2022/04/12 03:48:56;;;;;;;29.52;15.23;;;9.60;99.90;;;;;;5051082;28;20048;-62
2022/04/12 03:51:23;;;;;;;28.23;15.10;;;9.60;99.90;;;;;;5049788;28;20480;-62
2022/04/12 03:53:51;;;;;;;30.52;14.88;;;9.60;99.90;;;;;;5052067;28;20491;-60
2022/04/12 03:56:19;;;;;;;31.15;15.05;;;9.70;99.90;;;;;;5054688;28;20416;-61
2022/04/12 03:58:46;;;;;;;28.23;14.63;;;9.70;99.90;;;;;;5053402;28;20084;-62
2022/04/12 04:01:14;;;;;;;27.83;14.65;;;9.60;99.90;;;;;;5054554;28;20049;-62
2022/04/12 04:03:43;;;;;;;29.92;15.77;;;9.70;99.90;;;;;;5054558;28;20052;-62
2022/04/12 04:06:11;;;;;;;31.90;14.95;;;9.70;99.90;;;;;;5054544;28;20060;-62
2022/04/12 04:08:38;;;;;;;24.55;15.15;;;9.60;99.90;;;;;;5053440;28;20037;-61
2022/04/12 04:11:06;;;;;;;30.38;14.55;;;9.60;99.90;;;;;;5065946;28;20051;-61
2022/04/12 04:13:36;;;;;;;32.60;15.95;;;9.60;99.90;;;;;;5072838;28;20404;-62
2022/04/12 04:16:05;;;;;;;34.33;15.27;;;9.60;99.90;;;;;;5071053;28;20041;-61
2022/04/12 04:18:34;;;;;;;35.27;15.60;;;9.60;99.90;;;;;;5054350;28;20060;-61
2022/04/12 04:21:02;;;;;;;34.42;16.67;;;9.50;99.90;;;;;;5054298;28;20298;-63
2022/04/12 04:23:30;;;;;;;31.48;15.20;;;9.50;99.90;;;;;;5054366;28;20044;-61
2022/04/12 04:25:57;;;;;;;34.70;15.90;;;9.50;99.90;;;;;;5054080;28;20048;-63
2022/04/12 04:28:29;;;;;;;34.13;16.90;;;9.40;99.90;;;;;;5052805;28;20041;-61
2022/04/12 04:30:57;;;;;;;36.90;17.85;;;9.40;99.90;;;;;;5053887;28;20061;-63
2022/04/12 04:33:25;;;;;;;33.80;17.08;;;9.40;99.90;;;;;;5054024;28;20041;-61
2022/04/12 04:35:52;;;;;;;31.60;16.33;;;9.40;99.90;;;;;;5053771;28;20052;-62
2022/04/12 04:38:20;;;;;;;31.55;15.85;;;9.30;99.90;;;;;;5053841;28;20503;-61
2022/04/12 04:40:49;;;;;;;38.55;17.45;;;9.30;99.90;;;;;;5061551;28;20044;-62
2022/04/12 04:43:16;;;;;;;39.10;17.65;;;9.20;99.90;;;;;;5073702;28;20036;-61
2022/04/12 04:45:44;;;;;;;34.97;17.30;;;9.20;99.90;;;;;;5073862;28;20052;-62
2022/04/12 04:48:13;;;;;;;39.85;18.13;;;9.10;99.90;;;;;;5058059;28;20051;-61
2022/04/12 04:50:41;;;;;;;37.97;17.42;;;9.10;99.90;;;;;;5050186;28;20057;-62
2022/04/12 04:53:11;;;;;;;36.33;17.55;;;9.10;99.90;;;;;;5050259;28;20064;-62
2022/04/12 04:55:42;;;;;;;41.92;17.58;;;9.00;99.90;;;;;;5067084;28;20049;-63
2022/04/12 04:58:10;;;;;;;32.50;16.42;;;9.00;99.90;;;;;;5069866;28;20044;-62
2022/04/12 05:00:38;;;;;;;34.08;16.83;;;9.00;99.90;;;;;;5070113;28;20054;-65
2022/04/12 05:03:06;;;;;;;37.75;17.45;;;9.00;99.90;;;;;;5052478;28;20078;-63
2022/04/12 05:05:33;;;;;;;38.78;19.20;;;9.00;99.90;;;;;;5047674;28;20052;-63
2022/04/12 05:08:02;;;;;;;36.38;17.80;;;9.00;99.90;;;;;;5057917;28;20045;-62
2022/04/12 05:10:34;;;;;;;34.45;17.67;;;9.00;99.90;;;;;;5069555;28;20052;-61
2022/04/12 05:13:02;;;;;;;37.95;18.17;;;9.00;99.90;;;;;;5070306;28;20072;-65
2022/04/12 05:15:30;;;;;;;42.33;19.58;;;9.00;99.90;;;;;;5071542;28;20044;-63
2022/04/12 05:18:04;;;;;;;40.88;18.88;;;9.00;99.90;;;;;;5065003;28;20507;-63
2022/04/12 05:20:32;;;;;;;35.22;18.05;;;8.90;99.90;;;;;;5050235;28;20515;-64
2022/04/12 05:22:59;;;;;;;36.90;18.65;;;8.90;99.90;;;;;;5051272;28;20396;-63
2022/04/12 05:25:27;;;;;;;44.08;19.15;;;8.90;99.90;;;;;;5051638;28;20049;-61
2022/04/12 05:27:55;;;;;;;41.92;19.52;;;8.80;99.90;;;;;;5057563;28;20400;-63
2022/04/12 05:30:22;;;;;;;41.38;21.10;;;8.70;99.90;;;;;;5069825;28;20047;-64
2022/04/12 05:32:50;;;;;;;41.35;20.77;;;8.70;99.90;;;;;;5067510;28;20051;-63
2022/04/12 05:35:17;;;;;;;43.00;22.17;;;8.60;99.90;;;;;;5047914;28;20045;-61
2022/04/12 05:37:53;;;;;;;47.80;22.27;;;8.50;99.90;;;;;;5052690;28;20044;-63
2022/04/12 05:40:22;;;;;;;46.10;23.10;;;8.50;99.90;;;;;;5065723;28;20044;-65
2022/04/12 05:42:53;;;;;;;48.88;22.10;;;8.50;99.90;;;;;;5067199;28;20407;-62
2022/04/12 05:45:21;;;;;;;49.72;22.58;;;8.50;99.90;;;;;;5053130;28;20057;-63
2022/04/12 05:47:51;;;;;;;51.67;22.17;;;8.50;99.90;;;;;;5068313;28;20048;-64
2022/04/12 05:50:21;;;;;;;45.80;22.02;;;8.50;99.90;;;;;;5049334;28;20045;-60
2022/04/12 05:52:49;;;;;;;44.10;21.80;;;8.50;99.90;;;;;;5047204;28;20061;-61
2022/04/12 05:55:18;;;;;;;50.67;21.73;;;8.50;99.90;;;;;;5047427;28;20057;-61
2022/04/12 05:57:59;;;;;;;47.15;20.65;;;8.50;99.90;;;;;;5056617;28;20486;-61
2022/04/12 06:00:30;;;;;;;46.83;21.88;;;8.50;99.90;;;;;;5070189;28;20052;-64
2022/04/12 06:02:58;;;;;;;47.65;21.80;;;8.50;99.90;;;;;;5065132;28;20044;-61
2022/04/12 06:05:32;;;;;;;42.50;20.83;;;8.60;99.90;;;;;;5047364;28;20044;-63
2022/04/12 06:08:00;;;;;;;46.70;22.13;;;8.60;99.90;;;;;;5058426;28;20045;-63
2022/04/12 06:10:28;;;;;;;45.88;20.52;;;8.70;99.90;;;;;;5069545;28;20033;-65
2022/04/12 06:13:01;;;;;;;51.85;21.92;;;8.70;99.90;;;;;;5067103;28;20040;-62
2022/04/12 06:15:29;;;;;;;44.92;20.90;;;8.80;99.90;;;;;;5067023;28;20056;-64
2022/04/12 06:17:57;;;;;;;44.08;20.77;;;8.90;99.90;;;;;;5068539;28;20059;-65
2022/04/12 06:20:24;;;;;;;52.88;22.08;;;8.90;99.90;;;;;;5050251;28;20045;-70
2022/04/12 06:22:53;;;;;;;44.35;20.45;;;9.00;99.90;;;;;;5062814;28;20052;-65
2022/04/12 06:25:21;;;;;;;45.47;20.40;;;9.10;99.90;;;;;;5070106;28;20044;-61
2022/04/12 06:27:50;;;;;;;44.65;20.70;;;9.10;99.90;;;;;;5069779;28;20488;-61
2022/04/12 06:30:23;;;;;;;46.28;21.70;;;9.20;99.90;;;;;;5070143;28;20052;-62
2022/04/12 06:32:52;;;;;;;44.75;21.35;;;9.20;99.90;;;;;;5055636;28;20468;-63
2022/04/12 06:35:20;;;;;;;41.05;21.63;;;9.20;99.90;;;;;;5068202;28;20044;-61
2022/04/12 06:37:50;;;;;;;45.05;22.98;;;9.30;99.90;;;;;;5069818;28;20040;-62
2022/04/12 06:40:19;;;;;;;46.85;22.23;;;9.40;99.90;;;;;;5069345;28;20073;-64
2022/04/12 06:42:48;;;;;;;50.45;23.35;;;9.40;99.90;;;;;;5070021;28;20048;-62
2022/04/12 06:45:16;;;;;;;48.42;22.65;;;9.50;99.90;;;;;;5069970;28;20048;-62
2022/04/12 06:47:44;;;;;;;52.40;22.33;;;9.50;99.90;;;;;;5070062;28;20049;-61
2022/04/12 06:50:12;;;;;;;45.13;23.75;;;9.60;99.90;;;;;;5050933;28;20404;-65
2022/04/12 06:52:40;;;;;;;46.95;22.38;;;9.60;99.90;;;;;;5046604;28;20357;-64
2022/04/12 06:55:08;;;;;;;44.47;22.23;;;9.60;99.90;;;;;;5046839;28;20052;-64
2022/04/12 06:57:37;;;;;;;47.65;23.25;;;9.70;99.90;;;;;;5054189;28;20051;-65
2022/04/12 07:00:07;;;;;;;40.83;21.95;;;9.70;99.90;;;;;;5069926;28;20391;-68
2022/04/12 07:02:35;;;;;;;43.17;21.35;;;9.70;99.90;;;;;;5067000;28;20045;-67
2022/04/12 07:05:05;;;;;;;43.50;21.95;;;9.70;99.90;;;;;;5064962;28;20045;-61
2022/04/12 07:07:39;;;;;;;42.65;20.40;;;9.80;99.90;;;;;;5068352;28;20048;-61
2022/04/12 07:10:11;;;;;;;40.53;19.70;;;9.80;99.90;;;;;;5069095;28;20045;-62
2022/04/12 07:12:40;;;;;;;40.00;18.48;;;9.80;99.90;;;;;;5069835;28;20060;-61
2022/04/12 07:15:08;;;;;;;42.53;18.80;;;9.80;99.90;;;;;;5069728;28;20056;-61
2022/04/12 07:17:36;;;;;;;37.65;19.25;;;9.80;99.90;;;;;;5068408;28;20058;-63
2022/04/12 07:20:04;;;;;;;46.88;19.35;;;9.90;99.90;;;;;;5054984;28;20045;-61
2022/04/12 07:22:32;;;;;;;43.28;20.38;;;9.90;99.90;;;;;;5048459;28;20415;-61
2022/04/12 07:25:00;;;;;;;42.15;19.77;;;9.90;99.90;;;;;;5049720;28;20053;-63
2022/04/12 07:27:33;;;;;;;41.42;19.10;;;9.90;99.90;;;;;;5051540;28;20059;-62
2022/04/12 07:30:01;;;;;;;41.08;19.92;;;9.80;99.90;;;;;;5072519;28;20040;-61
2022/04/12 07:32:29;;;;;;;45.35;20.30;;;9.80;99.90;;;;;;5073636;28;20048;-62
2022/04/12 07:34:56;;;;;;;45.10;19.92;;;9.80;99.90;;;;;;5060810;28;20044;-62
2022/04/12 07:37:24;;;;;;;46.67;21.70;;;9.80;99.90;;;;;;5055960;28;20040;-64
2022/04/12 07:39:55;;;;;;;40.70;18.88;;;9.70;99.90;;;;;;5071565;28;20480;-63
2022/04/12 07:42:23;;;;;;;47.22;20.77;;;9.70;99.90;;;;;;5053226;28;20045;-62
2022/04/12 07:44:51;;;;;;;50.65;20.38;;;9.60;99.90;;;;;;5053476;28;20052;-68
2022/04/12 07:47:19;;;;;;;41.78;19.05;;;9.60;99.90;;;;;;5054986;28;20060;-65
2022/04/12 07:49:47;;;;;;;41.78;19.88;;;9.60;99.90;;;;;;5062411;28;20052;-63
2022/04/12 07:52:14;;;;;;;54.03;21.98;;;9.60;99.90;;;;;;5053190;28;20045;-66
2022/04/12 07:54:42;;;;;;;56.58;22.58;;;9.60;99.90;;;;;;5052916;28;20045;-65
2022/04/12 07:57:09;;;;;;;42.70;21.98;;;9.60;99.90;;;;;;5068942;28;20052;-61
2022/04/12 07:59:38;;;;;;;48.58;23.05;;;9.60;99.90;;;;;;5071778;28;20063;-66
2022/04/12 08:02:05;;;;;;;49.53;22.20;;;9.60;99.90;;;;;;5072796;28;20056;-66
2022/04/12 08:04:33;;;;;;;47.35;21.38;;;9.60;99.90;;;;;;5065484;28;20045;-62
2022/04/12 08:07:01;;;;;;;50.70;23.50;;;9.60;99.90;;;;;;5051899;28;20045;-66
2022/04/12 08:09:29;;;;;;;49.28;21.85;;;9.60;99.90;;;;;;5071723;28;20055;-65
2022/04/12 08:11:57;;;;;;;54.38;23.98;;;9.50;99.90;;;;;;5072727;28;20055;-66
2022/04/12 08:14:24;;;;;;;59.67;26.38;;;9.60;99.90;;;;;;5072812;28;20052;-67
2022/04/12 08:16:52;;;;;;;59.70;26.75;;;9.60;99.90;;;;;;5072462;28;20063;-65
2022/04/12 08:19:20;;;;;;;65.50;27.80;;;9.60;99.90;;;;;;5067903;28;20396;-62
2022/04/12 08:21:48;;;;;;;74.53;28.02;;;9.70;99.90;;;;;;5052364;28;20037;-65
2022/04/12 08:24:16;;;;;;;73.50;28.35;;;9.70;99.90;;;;;;5052406;28;20052;-67
2022/04/12 08:26:43;;;;;;;65.28;29.77;;;9.80;99.90;;;;;;5052471;28;20045;-66
2022/04/12 08:29:11;;;;;;;68.95;27.38;;;9.80;99.90;;;;;;5069618;28;20376;-62
2022/04/12 08:31:39;;;;;;;61.05;28.63;;;9.80;99.90;;;;;;5072499;28;20048;-62
2022/04/12 08:34:07;;;;;;;63.53;26.85;;;9.90;99.90;;;;;;5071110;28;20044;-62
2022/04/12 08:36:35;;;;;;;77.60;27.73;;;9.90;99.90;;;;;;5072102;28;20484;-61
2022/04/12 08:39:03;;;;;;;62.90;25.92;;;9.90;99.90;;;;;;5071339;28;20048;-61
2022/04/12 08:41:34;;;;;;;68.13;26.85;;;9.90;99.90;;;;;;5070947;28;20059;-61
2022/04/12 08:44:02;;;;;;;52.45;25.67;;;9.90;99.90;;;;;;5072089;28;20063;-60
2022/04/12 08:46:29;;;;;;;53.17;21.48;;;9.90;99.90;;;;;;5071101;28;20037;-61
2022/04/12 08:48:57;;;;;;;46.50;20.73;;;9.90;99.90;;;;;;5072132;28;20049;-63
2022/04/12 08:51:30;;;;;;;46.50;20.83;;;9.90;99.90;;;;;;5052281;28;20489;-62
2022/04/12 08:53:58;;;;;;;46.88;20.80;;;9.90;99.90;;;;;;5051873;28;20056;-63
2022/04/12 08:56:28;;;;;;;43.63;21.15;;;9.90;99.90;;;;;;5051898;28;20506;-61
2022/04/12 08:58:56;;;;;;;43.57;20.33;;;9.90;99.90;;;;;;5066974;28;20048;-63
2022/04/12 09:01:38;;;;;;;46.75;19.83;;;9.90;99.90;;;;;;5071719;28;20528;-61
2022/04/12 09:04:07;;;;;;;47.75;21.02;;;9.90;99.90;;;;;;5071909;28;20048;-61
2022/04/12 09:06:35;;;;;;;47.30;21.38;;;9.90;99.90;;;;;;5066751;28;20048;-62
2022/04/12 09:09:13;;;;;;;49.80;20.73;;;9.80;99.90;;;;;;5066633;28;20048;-61
2022/04/12 09:11:42;;;;;;;49.10;22.30;;;9.80;99.90;;;;;;5051578;28;20041;-66
2022/04/12 09:14:13;;;;;;;52.47;23.45;;;9.80;99.90;;;;;;5051427;28;20048;-62
2022/04/12 09:16:45;;;;;;;51.70;21.83;;;9.80;99.90;;;;;;5051482;28;20060;-64
2022/04/12 09:19:13;;;;;;;45.00;22.13;;;9.90;99.90;;;;;;5068552;28;20041;-61
2022/04/12 09:21:46;;;;;;;45.13;20.67;;;9.90;99.90;;;;;;5052045;28;20668;-62
2022/04/12 09:24:22;;;;;;;51.58;22.42;;;10.00;99.90;;;;;;5051602;28;20051;-61
2022/04/12 09:26:57;;;;;;;57.83;22.52;;;10.00;99.90;;;;;;5050921;28;20049;-62
2022/04/12 09:29:27;;;;;;;48.97;22.95;;;10.00;99.90;;;;;;5069860;28;20036;-61
2022/04/12 09:31:59;;;;;;;52.47;23.38;;;10.00;99.90;;;;;;5071043;28;20056;-67
2022/04/12 09:34:28;;;;;;;44.40;22.08;;;10.00;99.90;;;;;;5071210;28;20071;-61
2022/04/12 09:37:42;;;;;;;48.20;21.88;;;10.00;99.90;;;;;;5051618;28;20045;-63
2022/04/12 09:40:17;;;;;;;43.85;20.55;;;10.00;99.90;;;;;;5067795;28;20064;-66
2022/04/12 09:42:52;;;;;;;48.95;21.23;;;9.90;99.90;;;;;;5070974;28;20047;-60
2022/04/12 09:45:27;;;;;;;53.55;21.92;;;10.00;99.90;;;;;;5070971;28;20055;-60
2022/04/12 09:48:01;;;;;;;47.42;22.20;;;10.00;99.90;;;;;;5071014;28;20056;-60
2022/04/12 09:50:50;;;;;;;51.22;21.98;;;10.00;99.90;;;;;;5069373;28;20040;-59
2022/04/12 09:53:18;;;;;;;46.20;21.27;;;10.00;99.90;;;;;;5069411;28;20837;-61
2022/04/12 09:55:49;;;;;;;50.35;24.17;;;10.10;99.90;;;;;;5070686;28;20071;-62
2022/04/12 09:58:22;;;;;;;48.50;22.35;;;10.10;99.90;;;;;;5069583;28;20400;-62
2022/04/12 10:00:50;;;;;;;53.72;23.13;;;10.10;99.90;;;;;;5052985;28;20060;-61
2022/04/12 10:03:19;;;;;;;49.75;22.65;;;10.20;99.90;;;;;;5069682;28;20506;-61
2022/04/12 10:05:47;;;;;;;50.92;22.33;;;10.20;99.90;;;;;;5061597;28;20056;-62
2022/04/12 10:08:22;;;;;;;48.35;21.75;;;10.20;99.90;;;;;;5060687;28;20049;-65
2022/04/12 10:10:50;;;;;;;43.78;21.38;;;10.20;99.90;;;;;;5070562;28;20507;-61
2022/04/12 10:13:19;;;;;;;52.90;22.33;;;10.30;99.90;;;;;;5070310;28;20051;-61
2022/04/12 10:15:47;;;;;;;52.72;21.80;;;10.40;99.90;;;;;;5063904;28;20041;-62
2022/04/12 10:18:18;;;;;;;43.83;21.17;;;10.40;99.90;;;;;;5058068;28;20044;-62
2022/04/12 10:20:46;;;;;;;50.85;23.92;;;10.50;99.90;;;;;;5064589;28;20053;-59
2022/04/12 10:23:23;;;;;;;44.53;20.65;;;10.60;99.90;;;;;;5048780;28;20045;-62
2022/04/12 10:25:54;;;;;;;40.92;20.05;;;10.60;99.90;;;;;;5046910;28;20049;-61
2022/04/12 10:28:23;;;;;;;45.42;21.13;;;10.70;99.90;;;;;;5057739;28;20056;-62
2022/04/12 10:31:01;;;;;;;45.55;20.55;;;10.70;99.90;;;;;;5069962;28;20070;-62
2022/04/12 10:34:02;;;;;;;45.60;21.17;;;10.70;99.90;;;;;;5070156;28;20412;-62
2022/04/12 10:36:59;;;;;;;45.67;19.85;;;10.70;99.90;;;;;;5057485;28;20045;-63
2022/04/12 10:39:49;;;;;;;49.60;21.23;;;10.60;99.90;;;;;;5048756;28;20045;-63
2022/04/12 10:42:26;;;;;;;48.92;21.40;;;10.60;99.90;;;;;;5050114;28;20067;-62
2022/04/12 10:44:56;;;;;;;48.92;22.85;;;10.50;99.90;;;;;;5049987;28;20045;-66
2022/04/12 10:47:40;;;;;;;41.58;21.33;;;10.50;99.90;;;;;;5051793;28;20041;-64
2022/04/12 10:50:10;;;;;;;51.47;22.60;;;10.50;99.90;;;;;;5069544;28;20400;-65
2022/04/12 10:52:48;;;;;;;46.30;22.20;;;10.40;99.90;;;;;;5069880;28;20040;-67
2022/04/12 10:55:28;;;;;;;46.70;21.60;;;10.40;99.90;;;;;;5069935;28;20044;-66
2022/04/12 10:58:30;;;;;;;48.17;22.75;;;10.40;99.90;;;;;;5068531;28;20518;-64
2022/04/12 11:00:57;;;;;;;50.88;22.98;;;10.40;99.90;;;;;;5070088;28;20044;-65
2022/04/12 11:03:45;;;;;;;52.65;21.63;;;10.50;99.90;;;;;;5069135;28;20054;-69
2022/04/12 11:06:20;;;;;;;51.05;21.63;;;10.50;99.90;;;;;;5068523;28;20055;-66
2022/04/12 11:08:50;;;;;;;46.40;22.05;;;10.60;99.90;;;;;;5065562;28;20483;-61
2022/04/12 11:11:36;;;;;;;44.47;20.05;;;10.70;99.90;;;;;;5069901;28;20052;-64
2022/04/12 11:14:36;;;;;;;44.60;21.27;;;10.70;99.90;;;;;;5068420;28;20045;-61
2022/04/12 11:17:12;;;;;;;51.90;24.63;;;10.80;99.90;;;;;;5052564;28;20060;-62
2022/04/12 11:19:50;;;;;;;40.30;20.52;;;10.90;99.90;;;;;;5048411;28;20045;-62
2022/04/12 11:22:19;;;;;;;41.15;20.42;;;10.90;99.90;;;;;;5061015;28;20048;-63
2022/04/12 11:25:15;;;;;;;51.20;21.48;;;10.90;99.90;;;;;;5049335;28;20049;-60
2022/04/12 11:27:43;;;;;;;45.20;21.80;;;10.90;99.90;;;;;;5053702;28;20512;-62
2022/04/12 11:30:14;;;;;;;45.60;22.40;;;10.90;99.90;;;;;;5069449;28;20047;-62
2022/04/12 11:32:42;;;;;;;43.83;20.98;;;10.90;99.90;;;;;;5068293;28;20040;-62
2022/04/12 11:35:09;;;;;;;46.47;20.65;;;10.90;99.90;;;;;;5068255;28;20384;-62
2022/04/12 11:37:41;;;;;;;44.72;22.15;;;10.90;99.90;;;;;;5061729;28;20060;-62
2022/04/12 11:40:09;;;;;;;46.47;20.98;;;10.90;99.90;;;;;;5054489;28;20053;-64
2022/04/12 11:42:36;;;;;;;63.05;30.50;;;10.90;99.90;;;;;;5049613;28;20045;-62
2022/04/12 11:45:05;;;;;;;56.15;29.50;;;10.90;99.90;;;;;;5049340;28;20049;-62
2022/04/12 11:47:37;;;;;;;50.42;23.75;;;10.90;99.90;;;;;;5050973;28;20196;-62
2022/04/12 11:50:18;;;;;;;46.55;22.67;;;11.00;99.90;;;;;;5069495;28;20044;-62
2022/04/12 11:52:48;;;;;;;46.60;24.73;;;11.00;99.90;;;;;;5050887;28;20037;-63
2022/04/12 11:55:15;;;;;;;43.92;23.08;;;11.10;99.90;;;;;;5049339;28;20400;-64
2022/04/12 11:57:43;;;;;;;39.17;19.13;;;11.20;99.90;;;;;;5053317;28;20048;-63
2022/04/12 12:00:11;;;;;;;42.45;20.33;;;11.20;99.90;;;;;;5069289;28;20055;-64
2022/04/12 12:02:39;;;;;;;45.47;21.75;;;11.20;99.90;;;;;;5068128;28;20051;-62
2022/04/12 12:05:09;;;;;;;49.65;22.10;;;11.10;99.90;;;;;;5068179;28;20044;-68
2022/04/12 12:07:38;;;;;;;;;;;11.20;99.90;;;;;;5062105;28;20047;-63
2022/04/12 12:10:12;;;;;;;36.47;18.88;;;11.10;99.90;;;;;;5054821;28;19928;-62
2022/04/12 12:12:40;;;;;;;42.88;20.10;;;11.10;99.90;;;;;;5049141;28;20049;-62
2022/04/12 12:15:25;;;;;;;38.50;19.63;;;11.10;99.90;;;;;;5050903;28;20037;-62
2022/04/12 12:18:15;;;;;;;44.08;21.55;;;11.20;99.90;;;;;;5056631;28;20048;-62
2022/04/12 12:20:43;;;;;;;43.55;21.50;;;11.20;99.90;;;;;;5072588;28;20495;-68
2022/04/12 12:23:10;;;;;;;42.35;21.58;;;11.40;99.90;;;;;;5052569;28;20061;-62
2022/04/12 12:25:47;;;;;;;41.08;21.13;;;11.60;99.90;;;;;;5052276;28;20049;-62
2022/04/12 12:28:24;;;;;;;42.80;20.00;;;12.00;99.90;;;;;;5060825;28;20060;-61
2022/04/12 12:31:03;;;;;;;37.25;18.67;;;12.30;99.90;;;;;;5072496;28;20044;-62
2022/04/12 12:33:45;;;;;;;34.28;19.25;;;12.50;99.90;;;;;;5072549;28;20032;-62
2022/04/12 12:36:17;;;;;;;32.65;17.67;;;12.60;99.90;;;;;;5071143;28;20052;-62
2022/04/12 12:38:45;;;;;;;37.35;17.95;;;12.80;99.90;;;;;;5063579;28;20043;-63
2022/04/12 12:41:27;;;;;;;36.40;17.52;;;12.80;99.90;;;;;;5052183;28;20381;-63
2022/04/12 12:43:56;;;;;;;34.17;18.23;;;12.80;99.90;;;;;;5052200;28;20045;-63
2022/04/12 12:46:28;;;;;;;37.33;17.48;;;12.80;99.90;;;;;;5052213;28;20053;-63
2022/04/12 12:49:08;;;;;;;29.40;17.38;;;12.80;99.90;;;;;;5066160;28;20472;-65
2022/04/12 12:51:40;;;;;;;36.72;17.45;;;12.80;99.90;;;;;;5067729;28;20051;-64
2022/04/12 12:54:13;;;;;;;37.15;18.17;;;12.80;99.90;;;;;;5052016;28;20049;-65